sensor_id;sensor_type;location;lat;lon;timestamp;pressure;altitude;pressure_sealevel;temperature;humidity
76424;BME280;65257;52.104;4.268;2023-02-28T00:00:13;103188.22;;;3.47;100.00
76424;BME280;65257;52.104;4.268;2023-02-28T00:02:43;103196.59;;;3.46;100.00
76424;BME280;65257;52.104;4.268;2023-02-28T00:05:10;103188.22;;;3.47;100.00
76424;BME280;65257;52.104;4.268;2023-02-28T00:07:36;103193.19;;;3.54;100.00
76424;BME280;65257;52.104;4.268;2023-02-28T00:10:03;103183.53;;;3.58;100.00
76424;BME280;65257;52.104;4.268;2023-02-28T00:12:28;103185.59;;;3.62;100.00
76424;BME280;65257;52.104;4.268;2023-02-28T00:14:54;103183.84;;;3.70;100.00
76424;BME280;65257;52.104;4.268;2023-02-28T00:17:20;103180.63;;;3.79;100.00
76424;BME280;65257;52.104;4.268;2023-02-28T00:19:50;103182.09;;;3.86;100.00
76424;BME280;65257;52.104;4.268;2023-02-28T00:22:17;103183.00;;;3.87;100.00
76424;BME280;65257;52.104;4.268;2023-02-28T00:24:42;103183.03;;;3.95;100.00
76424;BME280;65257;52.104;4.268;2023-02-28T00:27:08;103191.03;;;3.91;100.00
76424;BME280;65257;52.104;4.268;2023-02-28T00:29:34;103193.28;;;3.88;100.00
76424;BME280;65257;52.104;4.268;2023-02-28T00:31:59;103191.91;;;3.83;100.00
76424;BME280;65257;52.104;4.268;2023-02-28T00:34:24;103190.59;;;3.87;100.00
76424;BME280;65257;52.104;4.268;2023-02-28T00:36:50;103194.34;;;3.90;100.00
76424;BME280;65257;52.104;4.268;2023-02-28T00:39:15;103192.22;;;3.86;100.00
76424;BME280;65257;52.104;4.268;2023-02-28T00:41:40;103194.03;;;3.87;100.00
76424;BME280;65257;52.104;4.268;2023-02-28T00:44:06;103193.44;;;3.90;100.00
76424;BME280;65257;52.104;4.268;2023-02-28T00:46:31;103191.03;;;3.91;100.00
76424;BME280;65257;52.104;4.268;2023-02-28T00:48:56;103197.59;;;3.89;100.00
76424;BME280;65257;52.104;4.268;2023-02-28T00:51:22;103200.59;;;3.85;100.00
76424;BME280;65257;52.104;4.268;2023-02-28T00:53:47;103195.22;;;3.82;100.00
76424;BME280;65257;52.104;4.268;2023-02-28T00:56:12;103196.41;;;3.77;100.00
76424;BME280;65257;52.104;4.268;2023-02-28T00:58:38;103194.28;;;3.73;100.00
76424;BME280;65257;52.104;4.268;2023-02-28T01:01:04;103197.56;;;3.72;100.00
76424;BME280;65257;52.104;4.268;2023-02-28T01:03:29;103197.84;;;3.75;100.00
76424;BME280;65257;52.104;4.268;2023-02-28T01:05:55;103198.03;;;3.76;100.00
76424;BME280;65257;52.104;4.268;2023-02-28T01:08:21;103193.41;;;3.81;100.00
76424;BME280;65257;52.104;4.268;2023-02-28T01:10:46;103199.69;;;3.85;100.00
76424;BME280;65257;52.104;4.268;2023-02-28T01:13:13;103186.84;;;3.83;100.00
76424;BME280;65257;52.104;4.268;2023-02-28T01:15:41;103194.03;;;3.87;100.00
76424;BME280;65257;52.104;4.268;2023-02-28T01:18:07;103196.13;;;3.91;100.00
76424;BME280;65257;52.104;4.268;2023-02-28T01:20:32;103199.09;;;3.96;100.00
76424;BME280;65257;52.104;4.268;2023-02-28T01:22:57;103194.03;;;3.96;100.00
76424;BME280;65257;52.104;4.268;2023-02-28T01:25:23;103194.94;;;3.96;100.00
76424;BME280;65257;52.104;4.268;2023-02-28T01:27:48;103196.41;;;3.94;100.00
76424;BME280;65257;52.104;4.268;2023-02-28T01:30:14;103190.31;;;3.92;100.00
76424;BME280;65257;52.104;4.268;2023-02-28T01:32:39;103196.41;;;3.94;100.00
76424;BME280;65257;52.104;4.268;2023-02-28T01:35:05;103186.28;;;3.94;100.00
76424;BME280;65257;52.104;4.268;2023-02-28T01:37:30;103197.03;;;4.00;100.00
76424;BME280;65257;52.104;4.268;2023-02-28T01:39:55;103191.06;;;4.00;100.00
76424;BME280;65257;52.104;4.268;2023-02-28T01:42:21;103191.50;;;3.96;100.00
76424;BME280;65257;52.104;4.268;2023-02-28T01:47:28;103186.00;;;4.00;100.00
76424;BME280;65257;52.104;4.268;2023-02-28T01:49:55;103188.09;;;3.95;100.00
76424;BME280;65257;52.104;4.268;2023-02-28T01:52:21;103180.63;;;3.97;100.00
76424;BME280;65257;52.104;4.268;2023-02-28T01:54:51;103172.44;;;3.91;100.00
76424;BME280;65257;52.104;4.268;2023-02-28T01:57:20;103175.53;;;3.88;100.00
76424;BME280;65257;52.104;4.268;2023-02-28T01:59:52;103174.09;;;3.90;100.00
76424;BME280;65257;52.104;4.268;2023-02-28T02:02:21;103175.53;;;3.88;100.00
76424;BME280;65257;52.104;4.268;2023-02-28T02:04:57;103175.84;;;3.91;100.00
76424;BME280;65257;52.104;4.268;2023-02-28T02:07:25;103178.69;;;3.94;100.00
76424;BME280;65257;52.104;4.268;2023-02-28T02:10:00;103174.38;;;3.93;100.00
76424;BME280;65257;52.104;4.268;2023-02-28T02:15:51;103166.03;;;3.94;100.00
76424;BME280;65257;52.104;4.268;2023-02-28T02:18:34;103167.38;;;3.99;100.00
76424;BME280;65257;52.104;4.268;2023-02-28T02:37:27;103159.81;;;4.08;100.00
76424;BME280;65257;52.104;4.268;2023-02-28T02:40:00;103159.50;;;4.13;100.00
76424;BME280;65257;52.104;4.268;2023-02-28T02:42:32;103154.44;;;4.05;100.00
76424;BME280;65257;52.104;4.268;2023-02-28T02:45:07;103153.22;;;4.01;100.00
76424;BME280;65257;52.104;4.268;2023-02-28T02:47:35;103144.28;;;3.96;100.00
76424;BME280;65257;52.104;4.268;2023-02-28T02:50:05;103148.16;;;4.01;100.00
76424;BME280;65257;52.104;4.268;2023-02-28T02:52:43;103150.56;;;4.00;100.00
76424;BME280;65257;52.104;4.268;2023-02-28T02:55:12;103150.56;;;4.08;100.00
76424;BME280;65257;52.104;4.268;2023-02-28T02:57:57;103153.84;;;4.07;100.00
76424;BME280;65257;52.104;4.268;2023-02-28T03:00:30;103158.44;;;4.11;100.00
76424;BME280;65257;52.104;4.268;2023-02-28T03:02:58;103144.59;;;4.16;100.00
76424;BME280;65257;52.104;4.268;2023-02-28T03:05:27;103155.03;;;4.11;100.00
76424;BME280;65257;52.104;4.268;2023-02-28T03:07:55;103151.47;;;4.17;100.00
76424;BME280;65257;52.104;4.268;2023-02-28T03:10:45;103162.50;;;4.18;100.00
76424;BME280;65257;52.104;4.268;2023-02-28T03:18:36;103152.63;;;4.29;100.00
76424;BME280;65257;52.104;4.268;2023-02-28T03:21:20;103144.59;;;4.25;100.00
76424;BME280;65257;52.104;4.268;2023-02-28T03:23:56;103146.06;;;4.31;100.00
76424;BME280;65257;52.104;4.268;2023-02-28T03:26:27;103138.78;;;4.34;100.00
76424;BME280;65257;52.104;4.268;2023-02-28T03:31:31;103141.03;;;4.23;100.00
76424;BME280;65257;52.104;4.268;2023-02-28T03:36:42;103145.06;;;4.21;100.00
76424;BME280;65257;52.104;4.268;2023-02-28T03:39:16;103129.69;;;4.19;100.00
76424;BME280;65257;52.104;4.268;2023-02-28T03:41:55;103135.34;;;4.17;100.00
76424;BME280;65257;52.104;4.268;2023-02-28T03:44:25;103131.19;;;4.17;100.00
76424;BME280;65257;52.104;4.268;2023-02-28T03:49:31;103138.34;;;4.21;100.00
76424;BME280;65257;52.104;4.268;2023-02-28T03:52:01;103146.69;;;4.20;100.00
76424;BME280;65257;52.104;4.268;2023-02-28T03:54:34;103140.44;;;4.25;100.00
76424;BME280;65257;52.104;4.268;2023-02-28T03:57:12;103140.44;;;4.25;100.00
76424;BME280;65257;52.104;4.268;2023-02-28T03:59:47;103143.69;;;4.24;100.00
76424;BME280;65257;52.104;4.268;2023-02-28T04:02:15;103141.03;;;4.23;100.00
76424;BME280;65257;52.104;4.268;2023-02-28T04:04:40;103155.34;;;4.22;100.00
76424;BME280;65257;52.104;4.268;2023-02-28T04:07:11;103153.53;;;4.21;100.00
76424;BME280;65257;52.104;4.268;2023-02-28T04:09:36;103155.91;;;4.11;100.00
76424;BME280;65257;52.104;4.268;2023-02-28T04:12:02;103154.16;;;4.10;100.00
76424;BME280;65257;52.104;4.268;2023-02-28T04:14:27;103159.50;;;4.13;100.00
76424;BME280;65257;52.104;4.268;2023-02-28T04:16:53;103161.28;;;4.14;100.00
76424;BME280;65257;52.104;4.268;2023-02-28T04:19:18;103156.81;;;4.20;100.00
76424;BME280;65257;52.104;4.268;2023-02-28T04:21:49;103159.19;;;4.19;100.00
76424;BME280;65257;52.104;4.268;2023-02-28T04:24:18;103161.91;;;4.20;100.00
76424;BME280;65257;52.104;4.268;2023-02-28T04:26:49;103155.94;;;4.20;100.00
76424;BME280;65257;52.104;4.268;2023-02-28T04:29:19;103158.91;;;4.24;100.00
76424;BME280;65257;52.104;4.268;2023-02-28T04:31:45;103157.41;;;4.26;100.00
76424;BME280;65257;52.104;4.268;2023-02-28T04:34:11;103154.44;;;4.30;100.00
76424;BME280;65257;52.104;4.268;2023-02-28T04:36:36;103154.13;;;4.44;100.00
76424;BME280;65257;52.104;4.268;2023-02-28T04:39:02;103148.47;;;4.38;100.00
76424;BME280;65257;52.104;4.268;2023-02-28T04:41:29;103152.50;;;4.36;100.00
76424;BME280;65257;52.104;4.268;2023-02-28T04:43:55;103153.56;;;4.38;100.00
76424;BME280;65257;52.104;4.268;2023-02-28T04:46:21;103151.00;;;4.38;100.00
76424;BME280;65257;52.104;4.268;2023-02-28T04:48:47;103155.03;;;4.45;100.00
76424;BME280;65257;52.104;4.268;2023-02-28T04:51:14;103157.13;;;4.40;100.00
76424;BME280;65257;52.104;4.268;2023-02-28T04:53:41;103156.81;;;4.37;100.00
76424;BME280;65257;52.104;4.268;2023-02-28T04:56:08;103159.22;;;4.36;100.00
76424;BME280;65257;52.104;4.268;2023-02-28T04:58:36;103161.88;;;4.37;100.00
76424;BME280;65257;52.104;4.268;2023-02-28T05:01:04;103151.16;;;4.31;100.00
76424;BME280;65257;52.104;4.268;2023-02-28T05:03:29;103149.78;;;4.52;100.00
76424;BME280;65257;52.104;4.268;2023-02-28T05:05:55;103150.97;;;4.56;100.00
76424;BME280;65257;52.104;4.268;2023-02-28T05:08:20;103146.97;;;4.49;100.00
76424;BME280;65257;52.104;4.268;2023-02-28T05:10:45;103144.28;;;4.48;100.00
76424;BME280;65257;52.104;4.268;2023-02-28T05:13:14;103145.19;;;4.39;100.00
76424;BME280;65257;52.104;4.268;2023-02-28T05:15:39;103144.00;;;4.36;100.00
76424;BME280;65257;52.104;4.268;2023-02-28T05:18:05;103139.84;;;4.36;100.00
76424;BME280;65257;52.104;4.268;2023-02-28T05:20:30;103141.78;;;4.30;100.00
76424;BME280;65257;52.104;4.268;2023-02-28T05:22:57;103147.56;;;4.29;100.00
76424;BME280;65257;52.104;4.268;2023-02-28T05:25:23;103147.56;;;4.29;100.00
76424;BME280;65257;52.104;4.268;2023-02-28T05:27:48;103141.59;;;4.29;100.00
76424;BME280;65257;52.104;4.268;2023-02-28T05:30:14;103145.47;;;4.34;100.00
76424;BME280;65257;52.104;4.268;2023-02-28T05:32:40;103140.75;;;4.28;100.00
76424;BME280;65257;52.104;4.268;2023-02-28T05:35:10;103145.03;;;4.29;100.00
76424;BME280;65257;52.104;4.268;2023-02-28T05:37:37;103141.78;;;4.30;100.00
76424;BME280;65257;52.104;4.268;2023-02-28T05:40:03;103146.53;;;4.27;100.00
76424;BME280;65257;52.104;4.268;2023-02-28T05:42:31;103137.13;;;4.26;100.00
76424;BME280;65257;52.104;4.268;2023-02-28T05:44:57;103141.47;;;4.27;100.00
76424;BME280;65257;52.104;4.268;2023-02-28T05:47:22;103138.03;;;4.27;100.00
76424;BME280;65257;52.104;4.268;2023-02-28T05:49:47;103141.00;;;4.31;100.00
76424;BME280;65257;52.104;4.268;2023-02-28T05:52:13;103146.38;;;4.34;100.00
76424;BME280;65257;52.104;4.268;2023-02-28T05:54:38;103150.56;;;4.25;100.00
76424;BME280;65257;52.104;4.268;2023-02-28T05:57:03;103144.59;;;4.25;100.00
76424;BME280;65257;52.104;4.268;2023-02-28T05:59:29;103148.78;;;4.24;100.00
76424;BME280;65257;52.104;4.268;2023-02-28T06:01:54;103148.78;;;4.24;100.00
76424;BME280;65257;52.104;4.268;2023-02-28T06:04:21;103150.56;;;4.25;100.00
76424;BME280;65257;52.104;4.268;2023-02-28T06:06:47;103145.81;;;4.28;100.00
76424;BME280;65257;52.104;4.268;2023-02-28T06:09:13;103144.31;;;4.30;100.00
76424;BME280;65257;52.104;4.268;2023-02-28T06:11:39;103147.59;;;4.21;100.00
76424;BME280;65257;52.104;4.268;2023-02-28T06:14:05;103146.69;;;4.20;100.00
76424;BME280;65257;52.104;4.268;2023-02-28T06:16:32;103152.06;;;4.15;100.00
76424;BME280;65257;52.104;4.268;2023-02-28T06:18:59;103157.09;;;4.06;100.00
76424;BME280;65257;52.104;4.268;2023-02-28T06:21:25;103159.22;;;4.10;100.00
76424;BME280;65257;52.104;4.268;2023-02-28T06:23:52;103156.78;;;4.03;100.00
76424;BME280;65257;52.104;4.268;2023-02-28T06:26:18;103154.44;;;4.05;100.00
76424;BME280;65257;52.104;4.268;2023-02-28T06:28:43;103156.50;;;4.09;100.00
76424;BME280;65257;52.104;4.268;2023-02-28T06:31:11;103158.63;;;4.13;100.00
76424;BME280;65257;52.104;4.268;2023-02-28T06:33:37;103151.72;;;4.03;100.00
76424;BME280;65257;52.104;4.268;2023-02-28T06:36:04;103160.72;;;4.08;100.00
76424;BME280;65257;52.104;4.268;2023-02-28T06:38:30;103154.44;;;4.13;100.00
76424;BME280;65257;52.104;4.268;2023-02-28T06:40:57;103164.28;;;4.10;100.00
76424;BME280;65257;52.104;4.268;2023-02-28T06:43:24;103161.25;;;4.06;100.00
76424;BME280;65257;52.104;4.268;2023-02-28T06:45:49;103159.50;;;4.05;100.00
76424;BME280;65257;52.104;4.268;2023-02-28T06:48:15;103155.28;;;3.88;100.00
76424;BME280;65257;52.104;4.268;2023-02-28T06:50:41;103158.59;;;3.87;100.00
76424;BME280;65257;52.104;4.268;2023-02-28T06:53:06;103156.31;;;3.73;100.00
76424;BME280;65257;52.104;4.268;2023-02-28T06:55:32;103163.59;;;3.61;100.00
76424;BME280;65257;52.104;4.268;2023-02-28T06:57:58;103165.38;;;3.62;100.00
76424;BME280;65257;52.104;4.268;2023-02-28T07:00:24;103167.16;;;3.63;100.00
76424;BME280;65257;52.104;4.268;2023-02-28T07:02:50;103167.78;;;3.69;100.00
76424;BME280;65257;52.104;4.268;2023-02-28T07:05:15;103169.56;;;3.70;100.00
76424;BME280;65257;52.104;4.268;2023-02-28T07:07:41;103176.56;;;3.64;100.00
76424;BME280;65257;52.104;4.268;2023-02-28T07:10:10;103172.81;;;3.61;100.00
76424;BME280;65257;52.104;4.268;2023-02-28T07:12:36;103172.84;;;3.78;100.00
76424;BME280;65257;52.104;4.268;2023-02-28T07:15:03;103174.31;;;3.59;100.00
76424;BME280;65257;52.104;4.268;2023-02-28T07:17:29;103184.06;;;3.47;100.00
76424;BME280;65257;52.104;4.268;2023-02-28T07:19:54;103181.13;;;3.60;100.00
76424;BME280;65257;52.104;4.268;2023-02-28T07:22:19;103184.91;;;3.72;100.00
76424;BME280;65257;52.104;4.268;2023-02-28T07:24:45;103182.66;;;3.75;100.00
76424;BME280;65257;52.104;4.268;2023-02-28T07:27:10;103191.34;;;3.77;100.00
76424;BME280;65257;52.104;4.268;2023-02-28T07:29:35;103187.97;;;3.52;100.00
76424;BME280;65257;52.104;4.268;2023-02-28T07:32:01;103193.03;;;3.52;100.00
76424;BME280;65257;52.104;4.268;2023-02-28T07:34:26;103199.25;;;3.39;100.00
76424;BME280;65257;52.104;4.268;2023-02-28T07:36:55;103189.19;;;3.56;100.00
76424;BME280;65257;52.104;4.268;2023-02-28T07:39:21;103194.69;;;3.60;100.00
76424;BME280;65257;52.104;4.268;2023-02-28T07:41:47;103196.63;;;3.63;100.00
76424;BME280;65257;52.104;4.268;2023-02-28T07:44:13;103187.06;;;3.52;100.00
76424;BME280;65257;52.104;4.268;2023-02-28T07:46:39;103185.59;;;3.54;100.00
76424;BME280;65257;52.104;4.268;2023-02-28T07:49:04;103189.34;;;3.25;100.00
76424;BME280;65257;52.104;4.268;2023-02-28T07:51:30;103199.91;;;2.96;100.00
76424;BME280;65257;52.104;4.268;2023-02-28T07:53:56;103202.88;;;2.92;100.00
76424;BME280;65257;52.104;4.268;2023-02-28T07:56:22;103204.28;;;2.82;100.00
76424;BME280;65257;52.104;4.268;2023-02-28T07:58:47;103193.44;;;2.67;100.00
76424;BME280;65257;52.104;4.268;2023-02-28T08:01:13;103203.19;;;2.56;100.00
76424;BME280;65257;52.104;4.268;2023-02-28T08:03:39;103200.19;;;2.51;100.00
76424;BME280;65257;52.104;4.268;2023-02-28T08:06:06;103204.91;;;2.48;100.00
76424;BME280;65257;52.104;4.268;2023-02-28T08:08:33;103202.25;;;2.46;100.00
76424;BME280;65257;52.104;4.268;2023-02-28T08:11:00;103204.91;;;2.48;100.00
76424;BME280;65257;52.104;4.268;2023-02-28T08:13:27;103205.72;;;2.40;100.00
76424;BME280;65257;52.104;4.268;2023-02-28T08:15:53;103205.41;;;2.37;100.00
76424;BME280;65257;52.104;4.268;2023-02-28T08:18:20;103209.72;;;2.38;100.00
76424;BME280;65257;52.104;4.268;2023-02-28T08:20:45;103206.88;;;2.35;100.00
76424;BME280;65257;52.104;4.268;2023-02-28T08:23:10;103211.94;;;2.35;100.00
76424;BME280;65257;52.104;4.268;2023-02-28T08:25:36;103209.16;;;2.25;100.00
76424;BME280;65257;52.104;4.268;2023-02-28T08:28:01;103215.13;;;2.25;100.00
76424;BME280;65257;52.104;4.268;2023-02-28T08:30:27;103207.31;;;2.31;100.00
76424;BME280;65257;52.104;4.268;2023-02-28T08:32:52;103208.75;;;2.29;100.00
76424;BME280;65257;52.104;4.268;2023-02-28T08:35:17;103215.69;;;2.23;100.00
76424;BME280;65257;52.104;4.268;2023-02-28T08:37:43;103209.50;;;2.28;100.00
76424;BME280;65257;52.104;4.268;2023-02-28T08:40:09;103207.38;;;2.24;100.00
76424;BME280;65257;52.104;4.268;2023-02-28T08:42:35;103204.25;;;2.26;100.00
76424;BME280;65257;52.104;4.268;2023-02-28T08:45:00;103212.13;;;2.21;100.00
76424;BME280;65257;52.104;4.268;2023-02-28T08:47:25;103214.22;;;2.25;100.00
76424;BME280;65257;52.104;4.268;2023-02-28T08:49:51;103200.13;;;2.11;100.00
76424;BME280;65257;52.104;4.268;2023-02-28T08:52:17;103213.41;;;2.02;100.00
76424;BME280;65257;52.104;4.268;2023-02-28T08:54:42;103222.34;;;2.07;100.00
76424;BME280;65257;52.104;4.268;2023-02-28T08:57:07;103209.81;;;2.00;100.00
76424;BME280;65257;52.104;4.268;2023-02-28T08:59:33;103206.88;;;2.04;100.00
76424;BME280;65257;52.104;4.268;2023-02-28T09:01:58;103210.06;;;2.10;100.00
76424;BME280;65257;52.104;4.268;2023-02-28T09:04:24;103201.50;;;2.01;100.00
76424;BME280;65257;52.104;4.268;2023-02-28T09:06:49;103198.09;;;1.84;100.00
76424;BME280;65257;52.104;4.268;2023-02-28T09:09:15;103208.47;;;1.87;100.00
76424;BME280;65257;52.104;4.268;2023-02-28T09:11:41;103217.41;;;2.00;100.00
76424;BME280;65257;52.104;4.268;2023-02-28T09:14:06;103217.19;;;1.82;100.00
76424;BME280;65257;52.104;4.268;2023-02-28T09:16:34;103218.91;;;1.90;100.00
76424;BME280;65257;52.104;4.268;2023-02-28T09:19:00;103216.25;;;1.89;100.00
76424;BME280;65257;52.104;4.268;2023-02-28T09:21:26;103202.06;;;1.98;100.00
76424;BME280;65257;52.104;4.268;2023-02-28T09:23:51;103219.84;;;2.07;100.00
76424;BME280;65257;52.104;4.268;2023-02-28T09:26:23;103226.44;;;1.98;100.00
76424;BME280;65257;52.104;4.268;2023-02-28T09:28:50;103226.75;;;2.01;100.00
76424;BME280;65257;52.104;4.268;2023-02-28T09:31:21;103222.44;;;2.00;100.00
76424;BME280;65257;52.104;4.268;2023-02-28T09:33:51;103211.44;;;2.15;100.00
76424;BME280;65257;52.104;4.268;2023-02-28T09:36:17;103215.25;;;2.11;100.00
76424;BME280;65257;52.104;4.268;2023-02-28T09:38:43;103219.59;;;2.28;100.00
76424;BME280;65257;52.104;4.268;2023-02-28T09:41:31;103217.31;;;2.38;100.00
76424;BME280;65257;52.104;4.268;2023-02-28T09:44:03;103215.75;;;2.47;100.00
76424;BME280;65257;52.104;4.268;2023-02-28T09:46:43;103215.69;;;2.54;100.00
76424;BME280;65257;52.104;4.268;2023-02-28T09:49:15;103215.47;;;2.68;100.00
76424;BME280;65257;52.104;4.268;2023-02-28T09:52:10;103211.06;;;2.74;100.00
76424;BME280;65257;52.104;4.268;2023-02-28T09:54:37;103220.97;;;2.88;100.00
76424;BME280;65257;52.104;4.268;2023-02-28T09:57:32;103216.88;;;2.97;100.00
76424;BME280;65257;52.104;4.268;2023-02-28T10:02:52;103214.09;;;3.36;100.00
76424;BME280;65257;52.104;4.268;2023-02-28T10:05:37;103220.41;;;3.48;100.00
76424;BME280;65257;52.104;4.268;2023-02-28T10:11:02;103220.09;;;3.45;100.00
76424;BME280;65257;52.104;4.268;2023-02-28T10:19:20;103198.66;;;3.50;100.00
76424;BME280;65257;52.104;4.268;2023-02-28T10:21:56;103212.75;;;3.39;100.00
76424;BME280;65257;52.104;4.268;2023-02-28T10:24:30;103210.59;;;3.51;100.00
76424;BME280;65257;52.104;4.268;2023-02-28T10:27:14;103206.75;;;3.63;100.00
76424;BME280;65257;52.104;4.268;2023-02-28T10:29:43;103211.81;;;3.63;100.00
76424;BME280;65257;52.104;4.268;2023-02-28T10:32:12;103199.94;;;3.62;100.00
76424;BME280;65257;52.104;4.268;2023-02-28T10:34:39;103205.00;;;3.62;100.00
76424;BME280;65257;52.104;4.268;2023-02-28T10:37:05;103211.84;;;3.80;100.00
76424;BME280;65257;52.104;4.268;2023-02-28T10:39:44;103204.56;;;3.83;100.00
76424;BME280;65257;52.104;4.268;2023-02-28T10:42:29;103218.41;;;3.78;100.00
76424;BME280;65257;52.104;4.268;2023-02-28T10:45:12;103211.59;;;3.77;100.00
76424;BME280;65257;52.104;4.268;2023-02-28T10:47:52;103210.59;;;3.51;100.00
76424;BME280;65257;52.104;4.268;2023-02-28T11:01:21;103206.38;;;3.84;100.00
76424;BME280;65257;52.104;4.268;2023-02-28T11:03:47;103209.22;;;3.87;100.00
76424;BME280;65257;52.104;4.268;2023-02-28T11:06:22;103203.50;;;3.72;100.00
76424;BME280;65257;52.104;4.268;2023-02-28T11:08:54;103192.13;;;3.52;100.00
76424;BME280;65257;52.104;4.268;2023-02-28T11:11:20;103190.84;;;3.64;100.00
76424;BME280;65257;52.104;4.268;2023-02-28T11:13:51;103210.81;;;3.78;100.00
76424;BME280;65257;52.104;4.268;2023-02-28T11:16:18;103200.28;;;3.82;100.00
76424;BME280;65257;52.104;4.268;2023-02-28T11:18:48;103200.88;;;3.88;100.00
76424;BME280;65257;52.104;4.268;2023-02-28T11:21:31;103207.63;;;4.05;100.00
76424;BME280;65257;52.104;4.268;2023-02-28T11:26:52;103199.47;;;4.41;94.60
76424;BME280;65257;52.104;4.268;2023-02-28T11:29:23;103176.16;;;5.60;94.08
76424;BME280;65257;52.104;4.268;2023-02-28T11:34:35;103168.78;;;8.63;81.66
76424;BME280;65257;52.104;4.268;2023-02-28T11:37:02;103165.38;;;9.16;71.53
76424;BME280;65257;52.104;4.268;2023-02-28T11:39:32;103169.44;;;9.24;69.21
76424;BME280;65257;52.104;4.268;2023-02-28T11:47:37;103175.34;;;9.13;66.14
76424;BME280;65257;52.104;4.268;2023-02-28T12:12:17;103152.16;;;7.96;63.56
76424;BME280;65257;52.104;4.268;2023-02-28T12:15:00;103147.72;;;7.94;64.38
76424;BME280;65257;52.104;4.268;2023-02-28T12:20:34;103148.59;;;7.94;64.94
76424;BME280;65257;52.104;4.268;2023-02-28T12:25:59;103138.91;;;7.40;68.23
76424;BME280;65257;52.104;4.268;2023-02-28T12:28:31;103140.44;;;7.58;67.22
76424;BME280;65257;52.104;4.268;2023-02-28T12:31:34;103140.47;;;7.68;67.83
76424;BME280;65257;52.104;4.268;2023-02-28T12:33:53;103131.53;;;7.83;65.77
76424;BME280;65257;52.104;4.268;2023-02-28T12:36:22;103133.75;;;8.51;61.11
76424;BME280;65257;52.104;4.268;2023-02-28T12:38:55;103117.97;;;8.98;59.16
76424;BME280;65257;52.104;4.268;2023-02-28T12:41:54;103121.91;;;9.26;59.42
76424;BME280;65257;52.104;4.268;2023-02-28T12:44:42;103117.44;;;10.72;59.81
76424;BME280;65257;52.104;4.268;2023-02-28T12:47:15;103116.56;;;10.59;57.05
76424;BME280;65257;52.104;4.268;2023-02-28T12:49:51;103106.81;;;10.42;56.45
76424;BME280;65257;52.104;4.268;2023-02-28T12:52:46;103108.81;;;11.55;53.17
76424;BME280;65257;52.104;4.268;2023-02-28T12:58:20;103105.91;;;11.26;50.75
76424;BME280;65257;52.104;4.268;2023-02-28T13:14:01;103095.25;;;8.38;54.08
76424;BME280;65257;52.104;4.268;2023-02-28T13:16:27;103098.72;;;8.70;51.42
76424;BME280;65257;52.104;4.268;2023-02-28T13:19:08;103088.56;;;8.81;52.39
76424;BME280;65257;52.104;4.268;2023-02-28T13:21:42;103092.56;;;9.55;51.54
76424;BME280;65257;52.104;4.268;2023-02-28T13:24:08;103091.38;;;9.73;48.02
76424;BME280;65257;52.104;4.268;2023-02-28T13:34:28;103077.31;;;10.47;44.05
76424;BME280;65257;52.104;4.268;2023-02-28T13:47:53;103058.44;;;9.66;44.97
76424;BME280;65257;52.104;4.268;2023-02-28T14:01:03;103055.59;;;9.73;44.73
76424;BME280;65257;52.104;4.268;2023-02-28T14:08:57;103058.63;;;9.45;43.84
76424;BME280;65257;52.104;4.268;2023-02-28T14:11:35;103056.09;;;9.45;43.45
76424;BME280;65257;52.104;4.268;2023-02-28T14:14:02;103058.31;;;9.19;43.47
76424;BME280;65257;52.104;4.268;2023-02-28T14:16:37;103056.22;;;8.49;46.83
76424;BME280;65257;52.104;4.268;2023-02-28T14:21:38;103058.25;;;8.01;49.54
76424;BME280;65257;52.104;4.268;2023-02-28T14:24:29;103046.41;;;7.91;50.77
76424;BME280;65257;52.104;4.268;2023-02-28T14:32:32;103043.41;;;7.75;51.14
76424;BME280;65257;52.104;4.268;2023-02-28T14:35:09;103045.94;;;7.85;52.33
76424;BME280;65257;52.104;4.268;2023-02-28T14:37:41;103054.09;;;7.71;52.89
76424;BME280;65257;52.104;4.268;2023-02-28T14:40:21;103039.59;;;7.50;52.47
76424;BME280;65257;52.104;4.268;2023-02-28T14:42:55;103049.03;;;7.41;52.38
76424;BME280;65257;52.104;4.268;2023-02-28T14:45:22;103050.19;;;7.34;53.68
76424;BME280;65257;52.104;4.268;2023-02-28T14:47:50;103053.31;;;7.12;53.27
76424;BME280;65257;52.104;4.268;2023-02-28T14:50:22;103043.38;;;6.94;54.04
76424;BME280;65257;52.104;4.268;2023-02-28T14:52:47;103054.47;;;6.95;55.06
76424;BME280;65257;52.104;4.268;2023-02-28T14:55:17;103050.28;;;6.96;54.65
76424;BME280;65257;52.104;4.268;2023-02-28T14:58:17;103048.09;;;7.00;56.17
76424;BME280;65257;52.104;4.268;2023-02-28T15:00:48;103052.81;;;7.06;56.58
76424;BME280;65257;52.104;4.268;2023-02-28T15:03:29;103048.47;;;6.94;56.50
76424;BME280;65257;52.104;4.268;2023-02-28T15:06:02;103048.06;;;6.80;57.45
76424;BME280;65257;52.104;4.268;2023-02-28T15:08:28;103042.34;;;6.82;58.37
76424;BME280;65257;52.104;4.268;2023-02-28T15:11:00;103043.88;;;6.80;58.77
76424;BME280;65257;52.104;4.268;2023-02-28T15:16:04;103045.19;;;6.96;58.75
76424;BME280;65257;52.104;4.268;2023-02-28T15:19:04;103057.13;;;6.97;56.63
76424;BME280;65257;52.104;4.268;2023-02-28T15:21:33;103047.38;;;6.62;55.54
76424;BME280;65257;52.104;4.268;2023-02-28T15:24:06;103054.50;;;6.66;56.53
76424;BME280;65257;52.104;4.268;2023-02-28T15:26:41;103050.16;;;6.65;57.14
76424;BME280;65257;52.104;4.268;2023-02-28T15:29:17;103037.97;;;6.61;56.88
76424;BME280;65257;52.104;4.268;2023-02-28T15:31:50;103048.16;;;6.71;56.71
76424;BME280;65257;52.104;4.268;2023-02-28T15:34:20;103056.66;;;6.62;56.09
76424;BME280;65257;52.104;4.268;2023-02-28T15:36:46;103051.31;;;6.30;68.20
76424;BME280;65257;52.104;4.268;2023-02-28T15:39:24;103061.56;;;6.21;69.44
76424;BME280;65257;52.104;4.268;2023-02-28T15:41:52;103060.81;;;6.04;76.56